Time,TemperatureF,DewpointF,PressureIn,WindDirection,WindDirectionDegrees,WindSpeedMPH,WindSpeedGustMPH,Humidity,HourlyPrecipIn,Conditions,Clouds,dailyrainin,SoftwareType,DateUTC
2013-10-04 01:32:00,66.0,65.0,29.91,WSW,252,0.0,0.0,96,0.05,,,0.07,,2013-10-04 05:32:00,
2013-10-04 01:59:00,66.0,65.0,29.93,WSW,252,0.0,0.0,97,0.09,,,0.15,,2013-10-04 05:59:00,
2013-10-04 02:18:00,67.0,66.0,29.94,WSW,252,1.0,4.0,97,0.08,,,0.15,,2013-10-04 06:18:00,
2013-10-04 02:27:00,67.0,66.0,29.93,West,263,0.0,1.0,97,0.12,,,0.19,,2013-10-04 06:27:00,
2013-10-04 02:59:00,67.0,66.0,29.92,WNW,290,0.0,1.0,97,0.12,,,0.27,,2013-10-04 06:59:00,
2013-10-04 03:18:00,67.0,66.0,29.88,SSW,213,6.0,12.0,97,0.16,,,0.31,,2013-10-04 07:18:00,
2013-10-04 03:27:00,67.0,66.0,29.89,WSW,249,1.0,5.0,96,0.15,,,0.34,,2013-10-04 07:27:00,
2013-10-04 03:58:00,67.0,66.0,29.88,WSW,244,1.0,5.0,96,0.09,,,0.36,,2013-10-04 07:58:00,
2013-10-04 04:27:00,66.0,65.0,29.89,WSW,249,0.0,5.0,96,0.02,,,0.36,,2013-10-04 08:27:00,
2013-10-04 04:58:00,66.0,65.0,29.91,West,276,0.0,6.0,96,0.00,,,0.36,,2013-10-04 08:58:00,
2013-10-04 05:17:00,66.0,65.0,29.91,NNW,337,0.0,3.0,97,0.00,,,0.36,,2013-10-04 09:17:00,
2013-10-04 05:27:00,66.0,65.0,29.91,NW,319,0.0,2.0,97,0.00,,,0.36,,2013-10-04 09:27:00,
2013-10-04 06:01:00,66.0,65.0,29.93,West,277,0.0,1.0,97,0.00,,,0.36,,2013-10-04 10:01:00,
2013-10-04 06:20:00,66.0,65.0,29.92,West,266,0.0,4.0,97,0.00,,,0.36,,2013-10-04 10:20:00,
2013-10-04 06:30:00,66.0,65.0,29.93,WSW,254,0.0,3.0,97,0.00,,,0.36,,2013-10-04 10:30:00,
2013-10-04 07:01:00,66.0,65.0,29.93,WSW,248,0.0,0.0,97,0.00,,,0.36,,2013-10-04 11:01:00,
2013-10-04 07:29:00,65.0,64.0,29.93,WSW,248,0.0,0.0,97,0.00,,,0.36,,2013-10-04 11:29:00,
2013-10-04 08:00:00,65.0,64.0,29.95,WSW,248,0.0,0.0,97,0.00,,,0.36,,2013-10-04 12:00:00,
2013-10-04 08:20:00,65.0,64.0,29.95,WSW,248,0.0,0.0,97,0.00,,,0.36,,2013-10-04 12:20:00,
2013-10-04 08:29:00,64.0,63.0,29.96,WSW,248,0.0,0.0,97,0.00,,,0.36,,2013-10-04 12:29:00,
2013-10-04 09:00:00,65.0,64.0,29.96,WSW,248,0.0,0.0,97,0.00,,,0.36,,2013-10-04 13:00:00,
2013-10-04 09:19:00,65.0,64.0,29.96,WSW,248,0.0,0.0,98,0.00,,,0.36,,2013-10-04 13:19:00,
2013-10-04 09:29:00,66.0,65.0,29.97,WSW,248,0.0,0.0,98,0.00,,,0.36,,2013-10-04 13:29:00,
2013-10-04 09:48:00,66.0,65.0,29.97,WSW,248,0.0,2.0,98,0.00,,,0.36,,2013-10-04 13:48:00,
2013-10-04 10:00:00,66.0,65.0,29.98,WSW,248,0.0,3.0,97,0.00,,,0.36,,2013-10-04 14:00:00,
2013-10-04 10:19:00,66.0,65.0,29.98,WSW,248,1.0,3.0,97,0.00,,,0.36,,2013-10-04 14:19:00,
2013-10-04 10:29:00,66.0,65.0,29.98,WSW,248,0.0,2.0,97,0.00,,,0.36,,2013-10-04 14:29:00,
2013-10-04 10:49:00,67.0,66.0,29.99,WSW,248,0.0,5.0,97,0.00,,,0.36,,2013-10-04 14:49:00,
2013-10-04 11:01:00,67.0,66.0,29.98,West,275,1.0,4.0,97,0.00,,,0.36,,2013-10-04 15:01:00,
2013-10-04 11:20:00,67.0,66.0,29.98,West,275,0.0,1.0,96,0.00,,,0.36,,2013-10-04 15:20:00,
2013-10-04 11:30:00,67.0,66.0,29.98,West,275,0.0,1.0,96,0.00,,,0.36,,2013-10-04 15:30:00,
2013-10-04 11:49:00,68.0,67.0,29.99,WSW,249,0.0,6.0,96,0.00,,,0.36,,2013-10-04 15:49:00,
2013-10-04 12:01:00,68.0,67.0,29.99,WSW,257,1.0,6.0,95,0.00,,,0.36,,2013-10-04 16:01:00,
2013-10-04 12:20:00,69.0,67.0,29.99,WNW,288,0.0,9.0,92,0.00,,,0.36,,2013-10-04 16:20:00,
2013-10-04 12:30:00,70.0,67.0,29.98,West,271,3.0,5.0,91,0.00,,,0.36,,2013-10-04 16:30:00,
2013-10-04 12:49:00,70.0,67.0,29.99,West,262,1.0,4.0,90,0.00,,,0.36,,2013-10-04 16:49:00,
2013-10-04 13:01:00,70.0,67.0,29.99,West,262,1.0,3.0,90,0.00,,,0.36,,2013-10-04 17:01:00,
2013-10-04 13:30:00,70.0,66.0,29.98,West,262,0.0,2.0,88,0.00,,,0.36,,2013-10-04 17:30:00,
2013-10-04 14:03:00,72.0,68.0,29.98,West,262,0.0,1.0,86,0.00,,,0.36,,2013-10-04 18:03:00,
2013-10-04 14:22:00,72.0,67.0,29.97,West,262,0.0,0.0,84,0.00,,,0.36,,2013-10-04 18:22:00,
2013-10-04 14:31:00,73.0,68.0,29.96,South,178,0.0,5.0,83,0.00,,,0.36,,2013-10-04 18:31:00,
2013-10-04 14:50:00,74.0,68.0,29.96,SW,224,0.0,4.0,82,0.00,,,0.36,,2013-10-04 18:50:00,
2013-10-04 14:56:00,74.0,68.0,29.96,SSW,198,0.0,9.0,81,0.00,,,0.36,,2013-10-04 18:56:00,
2013-10-04 15:12:00,74.0,68.0,29.95,South,190,0.0,9.0,81,0.00,,,0.36,,2013-10-04 19:12:00,
2013-10-04 15:22:00,74.0,68.0,29.97,WSW,251,3.0,9.0,81,0.00,,,0.36,,2013-10-04 19:22:00,
2013-10-04 15:43:00,74.0,67.0,29.97,NW,323,0.0,8.0,80,0.00,,,0.36,,2013-10-04 19:43:00,
2013-10-04 15:52:00,75.0,67.0,29.97,WSW,257,4.0,7.0,77,0.00,,,0.36,,2013-10-04 19:52:00,
2013-10-04 16:11:00,76.0,69.0,29.97,NW,310,0.0,1.0,79,0.00,,,0.36,,2013-10-04 20:11:00,
2013-10-04 16:22:00,75.0,68.0,29.98,WNW,286,0.0,3.0,78,0.00,,,0.36,,2013-10-04 20:22:00,
2013-10-04 16:53:00,75.0,68.0,29.97,West,280,0.0,1.0,78,0.00,,,0.36,,2013-10-04 20:53:00,
2013-10-04 17:12:00,75.0,69.0,29.97,West,280,0.0,1.0,81,0.00,,,0.36,,2013-10-04 21:12:00,
2013-10-04 17:22:00,75.0,69.0,29.98,West,280,0.0,0.0,82,0.00,,,0.36,,2013-10-04 21:22:00,
2013-10-04 17:54:00,72.0,68.0,29.99,NE,34,0.0,4.0,86,0.00,,,0.36,,2013-10-04 21:54:00,
2013-10-04 18:23:00,70.0,67.0,30.00,North,5,0.0,6.0,89,0.00,,,0.36,,2013-10-04 22:23:00,
2013-10-04 18:43:00,70.0,67.0,29.99,ENE,61,0.0,6.0,89,0.00,,,0.36,,2013-10-04 22:43:00,
2013-10-04 18:52:00,69.0,66.0,29.98,ENE,69,0.0,1.0,90,0.00,,,0.36,,2013-10-04 22:52:00,
2013-10-04 19:22:00,69.0,66.0,29.98,ENE,69,0.0,2.0,91,0.00,,,0.36,,2013-10-04 23:22:00,
2013-10-04 19:53:00,69.0,67.0,29.98,ESE,114,0.0,7.0,93,0.00,,,0.36,,2013-10-04 23:53:00,
2013-10-04 20:12:00,69.0,67.0,29.99,ESE,114,0.0,0.0,93,0.00,,,0.36,,2013-10-05 00:12:00,
2013-10-04 20:23:00,68.0,66.0,30.00,ESE,114,0.0,0.0,93,0.00,,,0.36,,2013-10-05 00:23:00,
2013-10-04 20:42:00,68.0,66.0,29.99,ESE,114,0.0,0.0,94,0.00,,,0.36,,2013-10-05 00:42:00,
2013-10-04 20:53:00,68.0,66.0,29.98,ESE,114,0.0,1.0,94,0.00,,,0.36,,2013-10-05 00:53:00,
2013-10-04 21:22:00,68.0,67.0,30.00,ESE,114,0.0,1.0,95,0.00,,,0.36,,2013-10-05 01:22:00,
2013-10-04 21:43:00,67.0,66.0,30.00,ESE,114,0.0,0.0,95,0.00,,,0.36,,2013-10-05 01:43:00,
2013-10-04 21:52:00,67.0,66.0,30.00,ESE,114,0.0,0.0,95,0.00,,,0.36,,2013-10-05 01:52:00,
2013-10-04 22:11:00,67.0,66.0,30.01,ESE,114,0.0,0.0,95,0.00,,,0.36,,2013-10-05 02:11:00,
2013-10-04 22:22:00,67.0,66.0,30.01,ESE,114,0.0,0.0,96,0.00,,,0.36,,2013-10-05 02:22:00,
2013-10-04 22:42:00,67.0,66.0,30.01,ESE,114,0.0,2.0,96,0.00,,,0.36,,2013-10-05 02:42:00,
2013-10-04 22:52:00,67.0,66.0,30.00,ESE,114,0.0,2.0,96,0.00,,,0.36,,2013-10-05 02:52:00,
2013-10-04 23:23:00,67.0,66.0,30.00,SE,134,3.0,7.0,96,0.00,,,0.36,,2013-10-05 03:23:00,
2013-10-04 23:45:00,67.0,66.0,30.00,ESE,121,0.0,7.0,96,0.00,,,0.36,,2013-10-05 03:45:00,
2013-10-04 23:55:00,67.0,66.0,30.01,ESE,123,3.0,7.0,96,0.00,,,0.36,,2013-10-05 03:55:00,